createdAt,value
2022-11-14T00:00:32.108Z,5.09
2022-11-14T00:01:32.064Z,5.09
2022-11-14T00:02:32.123Z,5.08
2022-11-14T00:03:32.081Z,5.07
2022-11-14T00:04:32.023Z,5.04
2022-11-14T00:05:32.058Z,5.02
2022-11-14T00:06:32.003Z,5.01
2022-11-14T00:07:32.012Z,5.01
2022-11-14T00:08:32.264Z,5.01
2022-11-14T00:09:31.948Z,5.03
2022-11-14T00:10:31.967Z,5.07
2022-11-14T00:11:32.707Z,5.10
2022-11-14T00:12:31.926Z,5.12
2022-11-14T00:13:31.913Z,5.12
2022-11-14T00:14:31.911Z,5.11
2022-11-14T00:15:31.897Z,5.10
2022-11-14T00:16:31.896Z,5.11
2022-11-14T00:17:31.867Z,5.12
2022-11-14T00:18:32.031Z,5.14
2022-11-14T00:19:31.847Z,5.16
2022-11-14T00:20:31.810Z,5.16
2022-11-14T00:21:31.827Z,5.15
2022-11-14T00:22:32.309Z,5.15
2022-11-14T00:23:31.922Z,5.16
2022-11-14T00:24:31.789Z,5.16
2022-11-14T00:25:40.100Z,5.17
2022-11-14T00:26:31.843Z,5.20
2022-11-14T00:27:31.808Z,5.23
2022-11-14T00:28:32.081Z,5.24
2022-11-14T00:29:31.707Z,5.24
2022-11-14T00:30:31.750Z,5.22
2022-11-14T00:31:31.706Z,5.20
2022-11-14T00:32:31.696Z,5.16
2022-11-14T00:33:31.710Z,5.12
2022-11-14T00:34:31.665Z,5.10
2022-11-14T00:35:31.679Z,5.07
2022-11-14T00:36:31.712Z,5.04
2022-11-14T00:37:31.623Z,5.03
2022-11-14T00:38:32.028Z,5.02
2022-11-14T00:39:31.590Z,5.01
2022-11-14T00:40:31.588Z,4.99
2022-11-14T00:41:31.607Z,4.97
2022-11-14T00:42:31.535Z,4.95
2022-11-14T00:43:31.527Z,4.94
2022-11-14T00:44:31.517Z,4.93
2022-11-14T00:45:31.507Z,4.93
2022-11-14T00:46:31.523Z,4.92
2022-11-14T00:47:31.466Z,4.90
2022-11-14T00:48:31.917Z,4.87
2022-11-14T00:49:31.449Z,4.85
2022-11-14T00:50:31.493Z,4.86
2022-11-14T00:51:31.462Z,4.87
2022-11-14T00:52:31.480Z,4.87
2022-11-14T00:53:31.401Z,4.86
2022-11-14T00:54:31.385Z,4.85
2022-11-14T00:55:31.394Z,4.83
2022-11-14T00:56:31.370Z,4.81
2022-11-14T00:57:31.354Z,4.78
2022-11-14T00:58:31.671Z,4.76
2022-11-14T00:59:31.314Z,4.75
2022-11-14T01:00:31.445Z,4.75
2022-11-14T01:01:31.335Z,4.76
2022-11-14T01:02:31.891Z,4.79
2022-11-14T01:03:31.364Z,4.80
2022-11-14T01:04:31.300Z,4.80
2022-11-14T01:05:31.314Z,4.79
2022-11-14T01:06:31.326Z,4.76
2022-11-14T01:07:31.330Z,4.73
2022-11-14T01:08:31.687Z,4.71
2022-11-14T01:09:31.291Z,4.70
2022-11-14T01:10:31.265Z,4.68
2022-11-14T01:11:31.194Z,4.65
2022-11-14T01:12:31.242Z,4.62
2022-11-14T01:13:31.148Z,4.59
2022-11-14T01:14:31.284Z,4.58
2022-11-14T01:15:31.172Z,4.58
2022-11-14T01:16:31.154Z,4.59
2022-11-14T01:17:31.180Z,4.59
2022-11-14T01:18:31.475Z,4.58
2022-11-14T01:19:31.263Z,4.57
2022-11-14T01:20:31.177Z,4.56
2022-11-14T01:21:31.120Z,4.55
2022-11-14T01:22:31.688Z,4.55
2022-11-14T01:23:31.134Z,4.53
2022-11-14T01:24:31.029Z,4.52
2022-11-14T01:25:31.123Z,4.51
2022-11-14T01:26:31.033Z,4.51
2022-11-14T01:27:30.983Z,4.51
2022-11-14T01:28:31.213Z,4.49
2022-11-14T01:29:30.932Z,4.46
2022-11-14T01:30:30.936Z,4.44
2022-11-14T01:31:30.893Z,4.42
2022-11-14T01:32:30.875Z,4.41
2022-11-14T01:33:30.905Z,4.38
2022-11-14T01:34:30.879Z,4.36
2022-11-14T01:35:31.048Z,4.34
2022-11-14T01:36:30.855Z,4.32
2022-11-14T01:37:30.909Z,4.30
2022-11-14T01:38:31.256Z,4.28
2022-11-14T01:39:30.806Z,4.28
2022-11-14T01:40:30.762Z,4.29
2022-11-14T01:41:30.819Z,4.33
2022-11-14T01:42:30.771Z,4.36
2022-11-14T01:43:30.765Z,4.41
2022-11-14T01:44:30.782Z,4.45
2022-11-14T01:45:30.739Z,4.51
2022-11-14T01:46:30.697Z,4.57
2022-11-14T01:47:30.729Z,4.63
2022-11-14T01:48:31.019Z,4.68
2022-11-14T01:49:30.668Z,4.72
2022-11-14T01:50:30.669Z,4.75
2022-11-14T01:51:30.658Z,4.77
2022-11-14T01:52:30.623Z,4.78
2022-11-14T01:53:30.630Z,4.78
2022-11-14T01:54:30.633Z,4.78
2022-11-14T01:55:30.602Z,4.77
2022-11-14T01:56:30.569Z,4.76
2022-11-14T01:57:30.560Z,4.75
2022-11-14T01:58:30.863Z,4.76
2022-11-14T01:59:30.573Z,4.77
2022-11-14T02:00:30.517Z,4.78
2022-11-14T02:01:30.570Z,4.80
2022-11-14T02:02:30.483Z,4.82
2022-11-14T02:03:30.496Z,4.84
2022-11-14T02:04:30.459Z,4.85
2022-11-14T02:05:30.450Z,4.86
2022-11-14T02:06:30.450Z,4.87
2022-11-14T02:07:30.480Z,4.89
2022-11-14T02:08:30.761Z,4.90
2022-11-14T02:09:30.427Z,4.92
2022-11-14T02:10:30.380Z,4.94
2022-11-14T02:11:30.423Z,4.95
2022-11-14T02:12:30.357Z,4.96
2022-11-14T02:13:30.365Z,4.97
2022-11-14T02:14:30.330Z,4.96
2022-11-14T02:15:30.347Z,4.94
2022-11-14T02:16:30.353Z,4.92
2022-11-14T02:17:31.162Z,4.90
2022-11-14T02:18:30.618Z,4.88
2022-11-14T02:19:30.269Z,4.87
2022-11-14T02:20:30.271Z,4.86
2022-11-14T02:21:30.269Z,4.85
2022-11-14T02:22:30.242Z,4.84
2022-11-14T02:23:30.215Z,4.82
2022-11-14T02:24:30.245Z,4.81
2022-11-14T02:25:30.201Z,4.80
2022-11-14T02:26:34.297Z,4.81
2022-11-14T02:27:30.195Z,4.82
2022-11-14T02:28:30.470Z,4.83
2022-11-14T02:29:30.159Z,4.84
2022-11-14T02:30:30.142Z,4.85
2022-11-14T02:31:30.132Z,4.86
2022-11-14T02:32:35.914Z,4.88
2022-11-14T02:33:30.115Z,4.90
2022-11-14T02:34:30.071Z,4.91
2022-11-14T02:35:30.059Z,4.92
2022-11-14T02:36:30.057Z,4.93
2022-11-14T02:37:30.077Z,4.93
2022-11-14T02:38:30.335Z,4.94
2022-11-14T02:39:30.017Z,4.94
2022-11-14T02:40:30.016Z,4.95
2022-11-14T02:41:29.999Z,4.94
2022-11-14T02:42:29.986Z,4.94
2022-11-14T02:43:30.001Z,4.93
2022-11-14T02:44:29.935Z,4.93
2022-11-14T02:45:29.928Z,4.93
2022-11-14T02:46:29.940Z,4.94
2022-11-14T02:47:29.927Z,4.95
2022-11-14T02:48:30.150Z,4.97
2022-11-14T02:49:29.881Z,4.98
2022-11-14T02:50:29.895Z,4.99
2022-11-14T02:51:29.847Z,4.99
2022-11-14T02:52:29.828Z,5.00
2022-11-14T02:53:29.844Z,5.00
2022-11-14T02:54:29.828Z,5.00
2022-11-14T02:55:29.826Z,5.00
2022-11-14T02:56:29.808Z,5.00
2022-11-14T02:57:29.775Z,5.00
2022-11-14T02:58:30.188Z,4.99
2022-11-14T02:59:29.795Z,4.98
2022-11-14T03:00:29.743Z,4.96
2022-11-14T03:01:29.796Z,4.94
2022-11-14T03:02:29.736Z,4.91
2022-11-14T03:03:29.710Z,4.89
2022-11-14T03:04:29.705Z,4.86
2022-11-14T03:05:29.678Z,4.83
2022-11-14T03:06:29.674Z,4.80
2022-11-14T03:07:29.764Z,4.76
2022-11-14T03:08:30.063Z,4.73
2022-11-14T03:09:29.637Z,4.69
2022-11-14T03:10:29.617Z,4.67
2022-11-14T03:11:29.629Z,4.64
2022-11-14T03:12:29.567Z,4.62
2022-11-14T03:13:29.572Z,4.58
2022-11-14T03:14:29.551Z,4.55
2022-11-14T03:15:29.545Z,4.53
2022-11-14T03:16:29.515Z,4.52
2022-11-14T03:17:29.501Z,4.52
2022-11-14T03:18:29.665Z,4.52
2022-11-14T03:19:29.478Z,4.52
2022-11-14T03:20:29.478Z,4.52
2022-11-14T03:21:29.493Z,4.53
2022-11-14T03:22:29.448Z,4.55
2022-11-14T03:23:29.443Z,4.57
2022-11-14T03:24:29.436Z,4.58
2022-11-14T03:25:29.399Z,4.59
2022-11-14T03:26:29.386Z,4.59
2022-11-14T03:27:29.371Z,4.59
2022-11-14T03:28:29.570Z,4.57
2022-11-14T03:29:29.367Z,4.56
2022-11-14T03:30:29.338Z,4.54
2022-11-14T03:31:29.344Z,4.51
2022-11-14T03:32:29.372Z,4.49
2022-11-14T03:33:29.324Z,4.48
2022-11-14T03:34:29.302Z,4.47
2022-11-14T03:35:29.326Z,4.45
2022-11-14T03:36:29.268Z,4.45
2022-11-14T03:37:29.269Z,4.45
2022-11-14T03:38:29.716Z,4.47
2022-11-14T03:39:29.244Z,4.48
2022-11-14T03:40:29.259Z,4.49
2022-11-14T03:41:29.220Z,4.50
2022-11-14T03:42:29.190Z,4.50
2022-11-14T03:43:29.194Z,4.48
2022-11-14T03:44:29.191Z,4.46
2022-11-14T03:45:29.175Z,4.45
2022-11-14T03:46:29.122Z,4.44
2022-11-14T03:47:29.185Z,4.43
2022-11-14T03:48:29.393Z,4.41
2022-11-14T03:49:29.135Z,4.39
2022-11-14T03:50:29.107Z,4.36
2022-11-14T03:51:29.082Z,4.35
2022-11-14T03:52:29.071Z,4.33
2022-11-14T03:53:29.059Z,4.31
2022-11-14T03:54:29.033Z,4.28
2022-11-14T03:55:29.032Z,4.25
2022-11-14T03:56:29.035Z,4.24
2022-11-14T03:57:28.996Z,4.23
2022-11-14T03:58:29.288Z,4.23
2022-11-14T03:59:28.977Z,4.23
2022-11-14T04:00:29.090Z,4.21
2022-11-14T04:01:28.986Z,4.18
2022-11-14T04:02:28.942Z,4.16
2022-11-14T04:03:28.929Z,4.15
2022-11-14T04:04:28.911Z,4.16
2022-11-14T04:05:28.900Z,4.15
2022-11-14T04:06:28.873Z,4.16
2022-11-14T04:07:28.946Z,4.19
2022-11-14T04:08:29.138Z,4.23
2022-11-14T04:09:28.856Z,4.26
2022-11-14T04:10:28.831Z,4.29
2022-11-14T04:11:28.822Z,4.30
2022-11-14T04:12:28.797Z,4.31
2022-11-14T04:13:28.793Z,4.32
2022-11-14T04:14:28.780Z,4.32
2022-11-14T04:15:28.832Z,4.32
2022-11-14T04:16:28.752Z,4.33
2022-11-14T04:17:28.732Z,4.33
2022-11-14T04:18:29.090Z,4.33
2022-11-14T04:19:28.742Z,4.33
2022-11-14T04:20:28.696Z,4.32
2022-11-14T04:21:28.697Z,4.31
2022-11-14T04:22:28.686Z,4.30
2022-11-14T04:23:28.678Z,4.30
2022-11-14T04:24:28.642Z,4.30
2022-11-14T04:25:28.666Z,4.29
2022-11-14T04:26:28.618Z,4.27
2022-11-14T04:27:28.597Z,4.25
2022-11-14T04:28:28.819Z,4.24
2022-11-14T04:29:28.580Z,4.24
2022-11-14T04:30:32.166Z,4.25
2022-11-14T04:31:28.569Z,4.24
2022-11-14T04:32:28.523Z,4.23
2022-11-14T04:33:28.515Z,4.22
2022-11-14T04:34:28.527Z,4.20
2022-11-14T04:35:28.530Z,4.20
2022-11-14T04:36:28.558Z,4.20
2022-11-14T04:37:28.573Z,4.21
2022-11-14T04:38:28.992Z,4.21
2022-11-14T04:39:28.446Z,4.21
2022-11-14T04:40:28.427Z,4.21
2022-11-14T04:41:28.428Z,4.21
2022-11-14T04:42:28.416Z,4.23
2022-11-14T04:43:28.408Z,4.24
2022-11-14T04:44:28.428Z,4.25
2022-11-14T04:45:28.422Z,4.25
2022-11-14T04:46:28.348Z,4.27
2022-11-14T04:47:28.385Z,4.30
2022-11-14T04:48:28.534Z,4.35
2022-11-14T04:49:28.402Z,4.39
2022-11-14T04:50:28.403Z,4.42
2022-11-14T04:51:28.316Z,4.44
2022-11-14T04:52:28.279Z,4.45
2022-11-14T04:53:28.286Z,4.46
2022-11-14T04:54:28.250Z,4.46
2022-11-14T04:55:28.272Z,4.46
2022-11-14T04:56:28.272Z,4.47
2022-11-14T04:57:28.245Z,4.48
2022-11-14T04:58:28.597Z,4.49
2022-11-14T04:59:28.260Z,4.50
2022-11-14T05:00:28.259Z,4.51
2022-11-14T05:01:28.411Z,4.52
2022-11-14T05:02:28.153Z,4.53
2022-11-14T05:03:28.135Z,4.53
2022-11-14T05:04:28.161Z,4.54
2022-11-14T05:05:28.104Z,4.55
2022-11-14T05:06:28.080Z,4.56
2022-11-14T05:07:28.115Z,4.57
2022-11-14T05:08:28.433Z,4.58
2022-11-14T05:09:28.075Z,4.58
2022-11-14T05:10:28.093Z,4.59
2022-11-14T05:11:29.328Z,4.59
2022-11-14T05:12:28.090Z,4.59
2022-11-14T05:13:28.341Z,4.59
2022-11-14T05:14:28.112Z,4.60
2022-11-14T05:15:28.301Z,4.61
2022-11-14T05:16:28.098Z,4.62
2022-11-14T05:17:28.199Z,4.63
2022-11-14T05:18:28.533Z,4.63
2022-11-14T05:19:28.091Z,4.63
2022-11-14T05:20:27.981Z,4.63
2022-11-14T05:21:28.037Z,4.63
2022-11-14T05:22:27.987Z,4.64
2022-11-14T05:23:28.038Z,4.64
2022-11-14T05:24:28.027Z,4.64
2022-11-14T05:25:28.040Z,4.65
2022-11-14T05:26:27.990Z,4.64
2022-11-14T05:27:27.947Z,4.63
2022-11-14T05:28:28.159Z,4.63
2022-11-14T05:29:27.976Z,4.63
2022-11-14T05:30:27.966Z,4.63
2022-11-14T05:31:28.053Z,4.63
2022-11-14T05:32:27.822Z,4.63
2022-11-14T05:33:27.805Z,4.63
2022-11-14T05:34:27.744Z,4.64
2022-11-14T05:35:27.735Z,4.65
2022-11-14T05:36:27.697Z,4.66
2022-11-14T05:37:27.714Z,4.67
2022-11-14T05:38:28.054Z,4.68
2022-11-14T05:39:27.698Z,4.69
2022-11-14T05:40:27.641Z,4.69
2022-11-14T05:41:27.682Z,4.69
2022-11-14T05:42:27.632Z,4.68
2022-11-14T05:43:27.670Z,4.68
2022-11-14T05:44:27.602Z,4.68
2022-11-14T05:45:27.622Z,4.68
2022-11-14T05:46:27.604Z,4.69
2022-11-14T05:47:27.585Z,4.69
2022-11-14T05:48:27.992Z,4.70
2022-11-14T05:49:27.561Z,4.70
2022-11-14T05:50:27.547Z,4.70
2022-11-14T05:51:27.531Z,4.70
2022-11-14T05:52:27.559Z,4.70
2022-11-14T05:53:27.523Z,4.69
2022-11-14T05:54:27.476Z,4.68
2022-11-14T05:55:27.462Z,4.68
2022-11-14T05:56:27.455Z,4.67
2022-11-14T05:57:27.482Z,4.68
2022-11-14T05:58:27.785Z,4.68
2022-11-14T05:59:27.433Z,4.68
2022-11-14T06:00:27.384Z,4.67
2022-11-14T06:01:27.387Z,4.67
2022-11-14T06:02:27.425Z,4.66
2022-11-14T06:03:27.398Z,4.66
2022-11-14T06:04:27.340Z,4.64
2022-11-14T06:05:27.339Z,4.62
2022-11-14T06:06:27.353Z,4.60
2022-11-14T06:07:27.361Z,4.57
2022-11-14T06:08:27.565Z,4.55
2022-11-14T06:09:27.312Z,4.53
2022-11-14T06:10:27.312Z,4.51
2022-11-14T06:11:27.357Z,4.49
2022-11-14T06:12:27.257Z,4.48
2022-11-14T06:13:27.250Z,4.46
2022-11-14T06:14:27.235Z,4.43
2022-11-14T06:15:27.745Z,4.41
2022-11-14T06:16:27.307Z,4.39
2022-11-14T06:17:27.156Z,4.37
2022-11-14T06:18:27.500Z,4.35
2022-11-14T06:19:27.568Z,4.32
2022-11-14T06:20:27.336Z,4.29
2022-11-14T06:21:27.519Z,4.27
2022-11-14T06:22:27.394Z,4.24
2022-11-14T06:23:27.211Z,4.22
2022-11-14T06:24:27.375Z,4.21
2022-11-14T06:26:22.172Z,5.36
2022-11-14T06:27:23.156Z,4.89
2022-11-14T06:28:23.120Z,4.59
2022-11-14T06:29:23.128Z,4.42
2022-11-14T06:30:23.154Z,4.34
2022-11-14T06:31:23.144Z,4.30
2022-11-14T06:32:23.100Z,4.28
2022-11-14T06:33:23.097Z,4.26
2022-11-14T06:34:23.075Z,4.25
2022-11-14T06:35:23.034Z,4.25
2022-11-14T06:36:23.045Z,4.25
2022-11-14T06:37:23.076Z,4.26
2022-11-14T06:38:23.050Z,4.26
2022-11-14T06:39:23.017Z,4.27
2022-11-14T06:40:22.977Z,4.27
2022-11-14T06:41:23.003Z,4.27
2022-11-14T06:42:22.963Z,4.27
2022-11-14T06:43:23.010Z,4.29
2022-11-14T06:44:27.833Z,4.30
2022-11-14T06:45:22.939Z,4.31
2022-11-14T06:46:22.922Z,4.30
2022-11-14T06:47:22.895Z,4.29
2022-11-14T06:48:22.879Z,4.28
2022-11-14T06:49:22.909Z,4.28
2022-11-14T06:50:22.872Z,4.28
2022-11-14T06:51:22.840Z,4.27
2022-11-14T06:52:22.868Z,4.27
2022-11-14T06:53:22.857Z,4.26
2022-11-14T06:54:22.861Z,4.25
2022-11-14T06:55:25.557Z,4.25
2022-11-14T06:56:22.887Z,4.25
2022-11-14T06:57:22.767Z,4.26
2022-11-14T06:58:22.765Z,4.27
2022-11-14T06:59:22.775Z,4.28
2022-11-14T07:00:22.758Z,4.29
2022-11-14T07:01:22.781Z,4.29
2022-11-14T07:02:22.693Z,4.30
2022-11-14T07:03:22.834Z,4.32
2022-11-14T07:04:22.687Z,4.33
2022-11-14T07:05:22.665Z,4.35
2022-11-14T07:06:22.828Z,4.36
2022-11-14T07:07:22.969Z,4.37
2022-11-14T07:08:22.603Z,4.39
2022-11-14T07:09:22.630Z,4.40
2022-11-14T07:10:22.596Z,4.42
2022-11-14T07:11:22.575Z,4.44
2022-11-14T07:12:22.613Z,4.45
2022-11-14T07:13:22.542Z,4.47
2022-11-14T07:14:22.519Z,4.49
2022-11-14T07:15:22.519Z,4.49
2022-11-14T07:16:22.517Z,4.50
2022-11-14T07:17:25.961Z,4.49
2022-11-14T07:18:22.502Z,4.49
2022-11-14T07:19:22.476Z,4.49
2022-11-14T07:20:22.473Z,4.49
2022-11-14T07:21:22.456Z,4.50
2022-11-14T07:22:22.441Z,4.50
2022-11-14T07:23:23.098Z,4.51
2022-11-14T07:24:22.431Z,4.52
2022-11-14T07:25:22.378Z,4.53
2022-11-14T07:26:22.377Z,4.54
2022-11-14T07:27:22.349Z,4.55
2022-11-14T07:28:22.430Z,4.56
2022-11-14T07:29:22.332Z,4.58
2022-11-14T07:30:22.338Z,4.60
2022-11-14T07:31:22.296Z,4.63
2022-11-14T07:32:22.349Z,4.65
2022-11-14T07:33:22.271Z,4.67
2022-11-14T07:34:22.291Z,4.69
2022-11-14T07:35:22.261Z,4.71
2022-11-14T07:36:22.265Z,4.71
2022-11-14T07:37:22.240Z,4.71
2022-11-14T07:38:22.213Z,4.71
2022-11-14T07:39:22.257Z,4.70
2022-11-14T07:40:22.188Z,4.70
2022-11-14T07:41:22.277Z,4.69
2022-11-14T07:42:22.180Z,4.68
2022-11-14T07:43:22.152Z,4.68
2022-11-14T07:44:22.139Z,4.68
2022-11-14T07:45:22.179Z,4.68
2022-11-14T07:46:22.133Z,4.68
2022-11-14T07:47:22.108Z,4.67
2022-11-14T07:48:22.613Z,4.68
2022-11-14T07:49:22.088Z,4.70
2022-11-14T07:50:22.108Z,4.71
2022-11-14T07:51:22.068Z,4.73
2022-11-14T07:52:22.053Z,4.73
2022-11-14T07:53:22.009Z,4.73
2022-11-14T07:54:22.010Z,4.73
2022-11-14T07:55:22.017Z,4.73
2022-11-14T07:56:21.999Z,4.75
2022-11-14T07:57:21.983Z,4.77
2022-11-14T07:58:21.995Z,4.78
2022-11-14T07:59:21.936Z,4.80
2022-11-14T08:00:21.945Z,4.81
2022-11-14T08:01:22.078Z,4.84
2022-11-14T08:02:21.898Z,4.88
2022-11-14T08:03:21.909Z,4.92
2022-11-14T08:04:21.902Z,4.94
2022-11-14T08:05:21.899Z,4.95
2022-11-14T08:06:21.870Z,5.01
2022-11-14T08:07:21.908Z,5.09
2022-11-14T08:08:21.825Z,5.16
2022-11-14T08:09:21.823Z,5.27
2022-11-14T08:10:21.813Z,5.43
2022-11-14T08:11:34.577Z,5.63
2022-11-14T08:12:21.816Z,5.78
2022-11-14T08:13:37.174Z,5.92
2022-11-14T08:14:21.759Z,6.12
2022-11-14T08:15:21.764Z,6.29
2022-11-14T08:16:21.718Z,6.40
2022-11-14T08:17:21.741Z,6.49
2022-11-14T08:18:21.722Z,6.60
2022-11-14T08:19:21.695Z,6.71
2022-11-14T08:20:21.698Z,6.80
2022-11-14T08:21:21.680Z,6.86
2022-11-14T08:22:21.658Z,6.85
2022-11-14T08:23:21.636Z,6.82
2022-11-14T08:24:21.628Z,6.79
2022-11-14T08:25:21.639Z,6.73
2022-11-14T08:26:21.584Z,6.60
2022-11-14T08:27:21.598Z,6.48
2022-11-14T08:28:21.559Z,6.40
2022-11-14T08:29:21.572Z,6.32
2022-11-14T08:30:21.613Z,6.22
2022-11-14T08:31:21.588Z,6.14
2022-11-14T08:32:21.512Z,6.11
2022-11-14T08:33:21.523Z,6.17
2022-11-14T08:34:21.495Z,6.27
2022-11-14T08:35:21.464Z,6.42
2022-11-14T08:36:21.462Z,6.60
2022-11-14T08:37:21.435Z,6.77
2022-11-14T08:38:21.447Z,6.84
2022-11-14T08:39:21.429Z,6.78
2022-11-14T08:40:21.448Z,6.62
2022-11-14T08:41:21.383Z,6.46
2022-11-14T08:42:21.385Z,6.35
2022-11-14T08:43:21.384Z,6.28
2022-11-14T08:44:21.357Z,6.23
2022-11-14T08:45:21.327Z,6.19
2022-11-14T08:46:21.343Z,6.16
2022-11-14T08:47:21.315Z,6.21
2022-11-14T08:48:21.311Z,6.36
2022-11-14T08:49:21.277Z,6.51
2022-11-14T08:50:21.287Z,6.58
2022-11-14T08:51:21.267Z,6.67
2022-11-14T08:52:21.265Z,6.69
2022-11-14T08:53:21.262Z,6.62
2022-11-14T08:54:21.244Z,6.58
2022-11-14T08:55:21.219Z,6.59
2022-11-14T08:56:21.223Z,6.63
2022-11-14T08:57:21.191Z,6.73
2022-11-14T08:58:21.174Z,6.78
2022-11-14T08:59:21.249Z,6.71
2022-11-14T09:00:21.155Z,6.67
2022-11-14T09:01:21.150Z,6.63
2022-11-14T09:02:21.116Z,6.61
2022-11-14T09:03:21.216Z,6.62
2022-11-14T09:04:21.147Z,6.65
2022-11-14T09:05:21.070Z,6.73
2022-11-14T09:06:21.096Z,6.83
2022-11-14T09:07:21.118Z,6.95
2022-11-14T09:08:21.037Z,7.14
2022-11-14T09:09:21.134Z,7.37
2022-11-14T09:10:21.027Z,7.60
2022-11-14T09:11:20.987Z,7.82
2022-11-14T09:12:21.015Z,8.06
2022-11-14T09:13:20.980Z,8.27
2022-11-14T09:14:20.959Z,8.35
2022-11-14T09:15:20.936Z,8.39
2022-11-14T09:16:20.942Z,8.52
2022-11-14T09:17:20.940Z,8.65
2022-11-14T09:18:20.919Z,8.72
2022-11-14T09:19:20.978Z,8.83
2022-11-14T09:20:20.891Z,8.91
2022-11-14T09:21:20.862Z,8.87
2022-11-14T09:22:20.873Z,8.90
2022-11-14T09:23:20.840Z,9.09
2022-11-14T09:24:20.817Z,9.33
2022-11-14T09:25:20.818Z,9.58
2022-11-14T09:26:20.811Z,9.84
2022-11-14T09:27:20.801Z,9.99
2022-11-14T09:28:20.882Z,9.95
2022-11-14T09:29:20.749Z,9.94
2022-11-14T09:30:20.817Z,10.05
2022-11-14T09:34:02.769Z,12.03
2022-11-14T09:35:03.759Z,11.51
2022-11-14T09:36:03.756Z,11.11
2022-11-14T09:37:03.731Z,10.86
2022-11-14T09:38:03.720Z,10.71
2022-11-14T09:39:03.692Z,10.61
2022-11-14T09:40:03.697Z,10.62
2022-11-14T09:41:03.702Z,10.79
2022-11-14T09:42:03.638Z,10.98
2022-11-14T09:43:03.672Z,10.94
2022-11-14T09:44:03.656Z,10.79
2022-11-14T09:45:03.621Z,10.75
2022-11-14T09:46:11.311Z,10.86
2022-11-14T09:47:03.659Z,11.00
2022-11-14T09:48:03.577Z,11.05
2022-11-14T09:49:03.648Z,11.05
2022-11-14T09:50:03.592Z,10.96
2022-11-14T09:51:03.576Z,10.76
2022-11-14T09:52:03.634Z,10.61
2022-11-14T09:53:03.675Z,10.49
2022-11-14T09:54:03.616Z,10.34
2022-11-14T09:55:03.685Z,10.30
2022-11-14T09:56:03.576Z,10.43
2022-11-14T09:57:03.594Z,10.58
2022-11-14T09:58:03.559Z,10.80
2022-11-14T09:59:03.486Z,11.11
2022-11-14T10:00:04.134Z,11.27
2022-11-14T10:01:08.949Z,11.33
2022-11-14T10:02:06.510Z,11.44
2022-11-14T10:03:03.402Z,11.43
2022-11-14T10:04:08.306Z,11.31
2022-11-14T10:05:03.389Z,11.15
2022-11-14T10:06:04.422Z,11.10
2022-11-14T10:07:03.469Z,11.19
2022-11-14T10:08:03.454Z,11.31
2022-11-14T10:09:03.724Z,11.43
2022-11-14T10:10:18.952Z,11.32
2022-11-14T10:11:03.400Z,10.92
2022-11-14T10:12:03.335Z,10.46
2022-11-14T10:13:03.308Z,10.17
2022-11-14T10:14:03.319Z,10.06
2022-11-14T10:15:03.293Z,10.06
2022-11-14T10:16:03.234Z,10.18
2022-11-14T10:17:07.828Z,10.35
2022-11-14T10:18:03.224Z,10.48
2022-11-14T10:19:03.224Z,10.54
2022-11-14T10:20:03.222Z,10.61
2022-11-14T10:21:03.239Z,10.80
2022-11-14T10:22:04.410Z,10.99
2022-11-14T10:23:03.197Z,11.03
2022-11-14T10:24:04.722Z,10.88
2022-11-14T10:25:03.217Z,10.70
2022-11-14T10:26:04.318Z,10.58
2022-11-14T10:27:03.388Z,10.51
2022-11-14T10:28:05.364Z,10.42
2022-11-14T10:29:03.197Z,10.26
2022-11-14T10:30:20.914Z,10.16
2022-11-14T10:31:04.666Z,10.11
2022-11-14T10:32:02.984Z,10.13
2022-11-14T10:33:06.959Z,10.25
2022-11-14T10:34:02.990Z,10.18
2022-11-14T10:35:12.622Z,9.90
2022-11-14T10:36:04.943Z,9.65
2022-11-14T10:37:02.924Z,9.44
2022-11-14T10:38:02.927Z,9.37
2022-11-14T10:39:02.921Z,9.44
2022-11-14T10:40:02.893Z,9.57
2022-11-14T10:41:02.889Z,9.61
2022-11-14T10:42:07.475Z,9.55
2022-11-14T10:43:02.863Z,9.51
2022-11-14T10:44:02.905Z,9.48
2022-11-14T10:45:02.862Z,9.43
2022-11-14T10:46:02.845Z,9.35
2022-11-14T10:47:02.872Z,9.21
2022-11-14T10:48:04.722Z,9.14
2022-11-14T10:49:03.170Z,9.14
2022-11-14T10:50:02.919Z,9.11
2022-11-14T10:51:07.234Z,9.11
2022-11-14T10:52:20.853Z,9.11
2022-11-14T10:53:18.765Z,9.07
2022-11-14T10:54:21.492Z,9.07
2022-11-14T10:55:31.996Z,9.22
2022-11-14T10:56:19.977Z,9.45
2022-11-14T10:57:14.043Z,9.68
2022-11-14T10:58:21.171Z,9.88
2022-11-14T10:59:13.067Z,10.07
2022-11-14T11:00:18.343Z,10.28
2022-11-14T11:01:34.134Z,10.48
2022-11-14T11:02:11.336Z,10.55
2022-11-14T11:03:17.786Z,10.48
2022-11-14T11:04:22.252Z,10.34
2022-11-14T11:05:17.082Z,10.13
2022-11-14T11:06:17.188Z,9.92
2022-11-14T11:07:24.105Z,9.76
2022-11-14T11:09:58.587Z,9.68
2022-11-14T11:10:30.452Z,9.79
2022-11-14T11:11:25.264Z,10.10
2022-11-14T11:12:19.633Z,10.56
2022-11-14T11:13:13.436Z,10.99
2022-11-14T11:14:06.203Z,11.21
2022-11-14T11:15:18.196Z,11.21
2022-11-14T11:19:46.536Z,11.10
2022-11-14T11:20:07.718Z,10.86
2022-11-14T11:21:01.101Z,10.59
2022-11-14T11:22:00.831Z,10.39
2022-11-14T11:23:41.765Z,10.27
2022-11-14T11:24:20.879Z,10.16
2022-11-14T11:24:53.486Z,10.09
2022-11-14T11:25:52.318Z,10.11
2022-11-14T11:26:52.919Z,10.20
2022-11-14T11:27:52.684Z,10.26
2022-11-14T11:29:01.871Z,10.28
2022-11-14T11:30:02.216Z,10.23
2022-11-14T11:30:54.497Z,10.17
2022-11-14T11:31:52.235Z,10.16
2022-11-14T11:32:52.840Z,10.31
2022-11-14T11:33:52.172Z,10.51
2022-11-14T11:34:52.250Z,10.63
2022-11-14T11:35:52.708Z,10.69
2022-11-14T11:36:52.348Z,10.72
2022-11-14T11:37:59.147Z,10.81
2022-11-14T11:38:52.197Z,11.02
2022-11-14T11:39:52.221Z,11.29
2022-11-14T11:40:52.117Z,11.55
2022-11-14T11:42:08.790Z,11.79
2022-11-14T11:43:56.634Z,11.83
2022-11-14T11:44:52.054Z,11.75
2022-11-14T11:45:52.011Z,11.67
2022-11-14T11:46:51.993Z,11.51
2022-11-14T11:47:52.012Z,11.41
2022-11-14T11:48:52.017Z,11.52
2022-11-14T11:49:54.205Z,11.80
2022-11-14T11:50:52.072Z,12.14
2022-11-14T11:51:52.169Z,12.41
2022-11-14T11:52:51.983Z,12.51
2022-11-14T11:53:52.183Z,12.57
2022-11-14T11:54:51.972Z,12.63
2022-11-14T11:55:52.044Z,12.49
2022-11-14T11:56:52.059Z,12.25
2022-11-14T11:57:51.979Z,12.15
2022-11-14T11:58:52.006Z,12.09
2022-11-14T11:59:51.992Z,11.97
2022-11-14T12:00:51.949Z,11.86
2022-11-14T12:01:52.120Z,11.93
2022-11-14T12:02:52.004Z,12.18
2022-11-14T12:03:51.957Z,12.49
2022-11-14T12:04:51.893Z,12.77
2022-11-14T12:05:51.788Z,13.07
2022-11-14T12:06:51.701Z,13.15
2022-11-14T12:07:51.764Z,12.88
2022-11-14T12:08:51.651Z,12.50
2022-11-14T12:10:51.955Z,11.73
2022-11-14T12:11:51.704Z,11.38
2022-11-14T12:12:51.639Z,11.05
2022-11-14T12:13:51.579Z,10.76
2022-11-14T12:14:51.578Z,10.57
2022-11-14T12:15:51.584Z,10.50
2022-11-14T12:16:51.595Z,10.45
2022-11-14T12:17:51.542Z,10.41
2022-11-14T12:18:51.518Z,10.40
2022-11-14T12:19:51.652Z,10.41
2022-11-14T12:20:51.513Z,10.37
2022-11-14T12:21:57.350Z,10.31
2022-11-14T12:22:51.479Z,10.27
2022-11-14T12:23:51.473Z,10.25
2022-11-14T12:24:51.461Z,10.24
2022-11-14T12:25:51.465Z,10.23
2022-11-14T12:26:51.869Z,10.18
2022-11-14T12:27:51.793Z,10.11
2022-11-14T12:28:53.064Z,10.03
2022-11-14T12:29:51.494Z,9.98
2022-11-14T12:30:51.541Z,9.99
2022-11-14T12:31:51.422Z,10.04
2022-11-14T12:32:51.477Z,10.05
2022-11-14T12:33:51.435Z,10.04
2022-11-14T12:34:51.467Z,10.05
2022-11-14T12:35:51.458Z,10.07
2022-11-14T12:36:52.445Z,10.08
2022-11-14T12:37:55.642Z,10.08
2022-11-14T12:38:53.013Z,10.12
2022-11-14T12:39:52.137Z,10.15
2022-11-14T12:40:51.243Z,10.16
2022-11-14T12:41:51.243Z,10.17
2022-11-14T12:42:51.233Z,10.17
2022-11-14T12:43:51.470Z,10.17
2022-11-14T12:44:51.207Z,10.18
2022-11-14T12:45:51.153Z,10.19
2022-11-14T12:46:51.183Z,10.21
2022-11-14T12:47:51.160Z,10.22
2022-11-14T12:48:51.171Z,10.23
2022-11-14T12:49:51.161Z,10.24
2022-11-14T12:50:51.150Z,10.19
2022-11-14T12:51:51.135Z,10.13
2022-11-14T12:52:51.085Z,10.11
2022-11-14T12:53:51.050Z,10.12
2022-11-14T12:54:51.040Z,10.13
2022-11-14T12:55:51.066Z,10.14
2022-11-14T12:56:53.980Z,10.13
2022-11-14T12:57:50.994Z,10.10
2022-11-14T12:58:51.023Z,10.08
2022-11-14T12:59:50.973Z,10.06
2022-11-14T13:00:51.117Z,10.06
2022-11-14T13:01:51.184Z,10.06
2022-11-14T13:02:50.946Z,10.04
2022-11-14T13:03:50.937Z,10.02
2022-11-14T13:04:50.952Z,10.01
2022-11-14T13:05:50.907Z,10.01
2022-11-14T13:06:50.971Z,10.01
2022-11-14T13:07:50.896Z,10.01
2022-11-14T13:08:50.896Z,10.03
2022-11-14T13:09:50.907Z,10.04
2022-11-14T13:10:50.952Z,10.02
2022-11-14T13:11:50.851Z,10.06
2022-11-14T13:12:50.844Z,10.16
2022-11-14T13:13:50.806Z,10.24
2022-11-14T13:14:50.869Z,10.26
2022-11-14T13:15:50.803Z,10.27
2022-11-14T13:16:50.779Z,10.28
2022-11-14T13:17:50.769Z,10.27
2022-11-14T13:18:50.794Z,10.28
2022-11-14T13:19:51.360Z,10.30
2022-11-14T13:20:50.915Z,10.37
2022-11-14T13:21:51.891Z,10.46